Time;durP1;ratioP1;P1;durP2;ratioP2;P2;SDS_P1;SDS_P2;PMS_P1;PMS_P2;Temp;Humidity;BMP_temperature;BMP_pressure;BME280_temperature;BME280_humidity;BME280_pressure;Samples;Min_cycle;Max_cycle;Signal;HPM_P1;HPM_P2
2021/06/06 00:02:07;;;;;;;109.25;65.97;;;14.70;99.90;;;;;;6270209;22;20020;-49
2021/06/06 00:04:33;;;;;;;123.13;70.05;;;14.70;99.90;;;;;;6270103;22;20022;-48
2021/06/06 00:07:02;;;;;;;114.20;68.93;;;14.70;99.90;;;;;;6269876;22;20016;-48
2021/06/06 00:09:32;;;;;;;115.95;68.57;;;14.60;99.90;;;;;;6269288;22;20051;-50
2021/06/06 00:12:06;;;;;;;116.50;67.50;;;14.60;99.90;;;;;;6270325;22;20031;-48
2021/06/06 00:14:37;;;;;;;112.55;66.30;;;14.60;99.90;;;;;;6270503;22;20019;-51
2021/06/06 00:17:15;;;;;;;110.20;66.47;;;14.60;99.90;;;;;;6269301;22;20022;-47
2021/06/06 00:19:41;;;;;;;105.35;63.13;;;14.50;99.90;;;;;;6269808;22;20011;-47
2021/06/06 00:22:15;;;;;;;107.00;69.03;;;14.60;99.90;;;;;;6269671;22;20464;-48
2021/06/06 00:24:42;;;;;;;125.45;69.10;;;14.60;99.90;;;;;;6270100;22;20019;-49
2021/06/06 00:27:10;;;;;;;109.13;68.00;;;14.50;99.90;;;;;;6270546;22;20027;-48
2021/06/06 00:29:41;;;;;;;124.95;68.75;;;14.50;99.90;;;;;;6270114;22;20471;-50
2021/06/06 00:32:10;;;;;;;128.35;70.70;;;14.50;99.90;;;;;;6270719;22;20023;-46
2021/06/06 00:34:42;;;;;;;111.20;65.15;;;14.50;99.90;;;;;;6270298;22;20023;-46
2021/06/06 00:37:13;;;;;;;104.50;64.68;;;14.50;99.90;;;;;;6270491;22;20024;-48
2021/06/06 00:39:43;;;;;;;110.50;66.32;;;14.50;99.90;;;;;;6270868;22;20015;-46
2021/06/06 00:42:15;;;;;;;105.05;67.60;;;14.50;99.90;;;;;;6243392;22;20091;-49
2021/06/06 00:44:44;;;;;;;108.00;65.90;;;14.50;99.90;;;;;;6252554;22;20015;-47
2021/06/06 00:47:17;;;;;;;121.63;67.38;;;14.50;99.90;;;;;;6242068;22;20098;-49
2021/06/06 00:49:48;;;;;;;112.20;66.68;;;14.50;99.90;;;;;;6241352;22;20813;-47
2021/06/06 00:52:18;;;;;;;120.43;68.53;;;14.50;99.90;;;;;;6269963;22;20073;-48
2021/06/06 00:54:48;;;;;;;112.40;65.43;;;14.50;99.90;;;;;;6269814;22;20015;-49
2021/06/06 00:57:26;;;;;;;106.15;64.05;;;14.60;99.90;;;;;;6278995;22;20024;-51
2021/06/06 01:00:29;;;;;;;105.18;64.18;;;14.60;99.90;;;;;;6269573;22;20400;-49
2021/06/06 01:02:59;;;;;;;103.25;62.63;;;14.60;99.90;;;;;;6269508;22;20448;-48
2021/06/06 01:05:42;;;;;;;92.28;58.35;;;14.50;99.90;;;;;;6269920;22;20026;-47
2021/06/06 01:08:18;;;;;;;87.03;55.03;;;14.60;99.90;;;;;;6269227;22;20045;-49
2021/06/06 01:11:17;;;;;;;81.82;57.10;;;14.60;99.90;;;;;;6269762;22;20340;-48
2021/06/06 01:14:00;;;;;;;80.18;56.55;;;14.60;99.90;;;;;;6115947;23;20684;-47
2021/06/06 01:16:40;;;;;;;80.72;54.33;;;14.60;99.90;;;;;;6091871;23;20798;-49
2021/06/06 01:19:36;;;;;;;86.57;56.80;;;14.60;99.90;;;;;;6115217;23;20026;-46
2021/06/06 01:22:19;;;;;;;83.22;54.58;;;14.60;99.90;;;;;;6090419;23;20116;-50
2021/06/06 01:24:58;;;;;;;77.03;53.03;;;14.60;99.90;;;;;;6091322;23;20018;-47
2021/06/06 01:27:30;;;;;;;73.32;52.92;;;14.60;99.90;;;;;;6090056;23;20026;-47
2021/06/06 01:30:10;;;;;;;75.13;52.55;;;14.60;99.90;;;;;;6090754;23;20542;-49
2021/06/06 01:33:06;;;;;;;79.70;53.20;;;14.60;99.90;;;;;;6067384;23;20089;-49
2021/06/06 01:35:37;;;;;;;77.18;53.33;;;14.70;99.90;;;;;;6091944;23;20013;-49
2021/06/06 01:38:13;;;;;;;84.93;56.92;;;14.70;99.90;;;;;;6101989;23;20022;-49
2021/06/06 01:40:52;;;;;;;77.55;55.15;;;14.60;99.90;;;;;;6091995;23;20031;-48
2021/06/06 01:43:27;;;;;;;84.95;56.38;;;14.60;99.90;;;;;;6115627;23;20074;-47
2021/06/06 01:46:01;;;;;;;88.78;56.05;;;14.70;99.90;;;;;;6090968;23;20021;-47
2021/06/06 01:48:34;;;;;;;91.90;57.65;;;14.70;99.90;;;;;;6115488;23;20029;-47
2021/06/06 01:51:12;;;;;;;85.18;57.08;;;14.70;99.90;;;;;;6193692;22;20020;-49
2021/06/06 01:53:44;;;;;;;99.30;59.28;;;14.70;99.90;;;;;;6242295;22;20402;-48
2021/06/06 01:56:34;;;;;;;87.70;57.42;;;14.70;99.90;;;;;;6241713;22;20022;-47
2021/06/06 01:59:09;;;;;;;88.93;58.17;;;14.70;99.90;;;;;;6251343;22;20022;-47
2021/06/06 02:01:51;;;;;;;88.68;56.55;;;14.70;99.90;;;;;;6241347;22;20016;-46
2021/06/06 02:04:21;;;;;;;77.80;56.20;;;14.70;99.90;;;;;;6241702;22;20031;-48
2021/06/06 02:07:05;;;;;;;71.18;53.00;;;14.70;99.90;;;;;;6241806;22;20020;-48
2021/06/06 02:09:53;;;;;;;75.32;53.50;;;14.70;99.90;;;;;;6241460;22;20019;-48
2021/06/06 02:12:36;;;;;;;70.57;50.85;;;14.70;99.90;;;;;;6252587;22;20054;-49
2021/06/06 02:15:15;;;;;;;73.40;51.22;;;14.70;99.90;;;;;;6242480;22;20069;-48
2021/06/06 02:17:57;;;;;;;66.70;52.70;;;14.70;99.90;;;;;;6269440;22;20394;-47
2021/06/06 02:20:32;;;;;;;63.13;51.60;;;14.70;99.90;;;;;;6241217;22;20468;-48
2021/06/06 02:23:00;;;;;;;64.70;52.08;;;14.70;99.90;;;;;;6241652;22;20031;-48
2021/06/06 02:25:32;;;;;;;62.72;49.53;;;14.70;99.90;;;;;;6241883;22;20456;-46
2021/06/06 02:28:29;;;;;;;57.55;47.50;;;14.70;99.90;;;;;;6241620;22;20019;-49
2021/06/06 02:31:12;;;;;;;61.03;47.95;;;14.70;99.90;;;;;;6279165;22;20103;-47
2021/06/06 02:34:01;;;;;;;62.95;48.85;;;14.70;99.90;;;;;;6269107;22;20086;-46
2021/06/06 02:36:35;;;;;;;58.95;47.53;;;14.70;99.90;;;;;;6242017;22;20101;-48
2021/06/06 02:39:16;;;;;;;52.13;46.45;;;14.70;99.90;;;;;;6267782;22;20015;-46
2021/06/06 02:42:16;;;;;;;54.05;48.22;;;14.70;99.90;;;;;;6268158;22;20050;-49
2021/06/06 02:44:46;;;;;;;55.08;48.95;;;14.70;99.90;;;;;;6240668;22;20023;-47
2021/06/06 02:47:20;;;;;;;52.45;46.92;;;14.60;99.90;;;;;;6268554;22;20015;-49
2021/06/06 02:49:52;;;;;;;57.63;47.05;;;14.60;99.90;;;;;;6267215;22;20032;-47
2021/06/06 02:52:46;;;;;;;52.08;46.50;;;14.60;99.90;;;;;;6268278;22;20711;-49
2021/06/06 02:55:44;;;;;;;57.08;48.08;;;14.60;99.90;;;;;;6240901;22;20016;-48
2021/06/06 02:58:24;;;;;;;55.60;49.63;;;14.60;99.90;;;;;;6241611;22;20015;-47
2021/06/06 03:01:00;;;;;;;55.65;48.53;;;14.50;99.90;;;;;;6279289;22;20073;-49
2021/06/06 03:03:33;;;;;;;56.22;47.67;;;14.60;99.90;;;;;;6279678;22;20026;-48
2021/06/06 03:06:23;;;;;;;54.50;48.63;;;14.50;99.90;;;;;;6241701;22;20035;-47
2021/06/06 03:08:49;;;;;;;54.75;47.72;;;14.50;99.90;;;;;;6268675;22;20646;-49
2021/06/06 03:11:19;;;;;;;55.60;48.50;;;14.50;99.90;;;;;;6241644;22;20016;-47
2021/06/06 03:13:53;;;;;;;52.70;47.03;;;14.50;99.90;;;;;;6278573;22;20086;-46
2021/06/06 03:16:31;;;;;;;53.78;48.00;;;14.50;99.90;;;;;;6241966;22;20027;-47
2021/06/06 03:19:06;;;;;;;53.70;47.78;;;14.50;99.90;;;;;;6268592;22;20020;-49
2021/06/06 03:21:43;;;;;;;54.05;47.72;;;14.50;99.90;;;;;;6268621;22;20016;-47
2021/06/06 03:24:18;;;;;;;53.17;47.42;;;14.50;99.90;;;;;;6241054;22;20715;-46
2021/06/06 03:26:50;;;;;;;54.47;48.55;;;14.50;99.90;;;;;;6268301;22;20039;-48
2021/06/06 03:29:28;;;;;;;57.97;48.88;;;14.60;99.90;;;;;;6251696;22;20019;-46
2021/06/06 03:32:11;;;;;;;54.45;47.30;;;14.50;99.90;;;;;;6241216;22;20020;-49
2021/06/06 03:34:42;;;;;;;;;;;14.50;99.90;;;;;;6241929;22;20023;-49
2021/06/06 03:37:12;;;;;;;53.22;47.47;;;14.50;99.90;;;;;;6242180;22;19965;-47
2021/06/06 03:39:55;;;;;;;56.13;48.83;;;14.50;99.90;;;;;;6267707;22;20020;-47
2021/06/06 03:42:33;;;;;;;56.33;48.50;;;14.50;99.90;;;;;;6241654;22;20015;-49
2021/06/06 03:45:04;;;;;;;54.80;47.40;;;14.50;99.90;;;;;;6241423;22;20349;-47
2021/06/06 03:47:35;;;;;;;55.67;48.03;;;14.50;99.90;;;;;;6241893;22;20048;-46
2021/06/06 03:50:09;;;;;;;55.13;47.80;;;14.50;99.90;;;;;;6241133;22;20027;-46
2021/06/06 03:52:46;;;;;;;58.78;49.50;;;14.50;99.90;;;;;;6242361;22;20020;-48
2021/06/06 03:55:18;;;;;;;55.25;46.95;;;14.50;99.90;;;;;;6268656;22;20460;-46
2021/06/06 03:57:52;;;;;;;55.55;47.42;;;14.50;99.90;;;;;;6253724;22;20643;-51
2021/06/06 04:00:46;;;;;;;57.25;47.67;;;14.60;99.90;;;;;;6242985;22;20091;-48
2021/06/06 04:03:21;;;;;;;59.70;49.55;;;14.50;99.90;;;;;;6254359;22;20453;-47
2021/06/06 04:05:52;;;;;;;;;;;14.50;99.90;;;;;;6253782;22;20023;-48
2021/06/06 04:08:28;;;;;;;58.35;47.70;;;14.50;99.90;;;;;;6219676;22;20018;-47
2021/06/06 04:11:06;;;;;;;63.78;47.03;;;14.60;99.90;;;;;;6242559;22;20022;-49
2021/06/06 04:13:35;;;;;;;58.92;48.67;;;14.60;99.90;;;;;;6270281;22;20349;-48
2021/06/06 04:16:07;;;;;;;56.27;46.53;;;14.60;99.90;;;;;;6253447;22;20416;-47
2021/06/06 04:18:36;;;;;;;55.58;44.90;;;14.60;99.90;;;;;;6242657;22;20122;-49
2021/06/06 04:21:11;;;;;;;53.20;44.33;;;14.70;99.90;;;;;;6242866;22;20016;-48
2021/06/06 04:23:40;;;;;;;;;;;14.70;99.90;;;;;;6254155;22;20019;-48
2021/06/06 04:26:09;;;;;;;55.17;46.30;;;14.70;99.90;;;;;;6270930;22;19926;-49
2021/06/06 04:28:46;;;;;;;50.92;44.50;;;14.60;99.90;;;;;;6242356;22;20050;-48
2021/06/06 04:31:25;;;;;;;52.63;43.83;;;14.70;99.90;;;;;;6270056;22;20077;-48
2021/06/06 04:33:54;;;;;;;51.45;44.55;;;14.70;99.90;;;;;;6242579;22;20023;-48
2021/06/06 04:36:27;;;;;;;56.58;44.22;;;14.80;99.90;;;;;;6242335;22;20094;-50
2021/06/06 04:38:57;;;;;;;52.50;45.13;;;14.80;99.90;;;;;;6252991;22;20031;-49
2021/06/06 04:41:36;;;;;;;53.50;42.53;;;14.80;99.90;;;;;;6251754;22;20342;-49
2021/06/06 04:44:06;;;;;;;52.08;42.75;;;14.80;99.90;;;;;;6242415;22;20712;-48
2021/06/06 04:46:40;;;;;;;50.13;42.67;;;14.80;99.90;;;;;;6242345;22;20030;-51
2021/06/06 04:49:10;;;;;;;54.28;42.95;;;14.90;99.90;;;;;;6241535;22;20020;-48
2021/06/06 04:51:43;;;;;;;51.13;42.30;;;14.90;99.90;;;;;;6242011;22;20102;-48
2021/06/06 04:54:13;;;;;;;51.92;41.50;;;14.90;99.90;;;;;;6242550;22;20022;-49
2021/06/06 04:56:48;;;;;;;46.10;40.00;;;14.90;99.90;;;;;;6242012;22;20085;-49
2021/06/06 04:59:29;;;;;;;46.35;38.10;;;14.90;99.90;;;;;;6279065;22;20022;-48
2021/06/06 05:01:58;;;;;;;44.25;35.20;;;15.00;99.90;;;;;;6241706;22;20020;-48
2021/06/06 05:04:25;;;;;;;43.45;35.28;;;14.90;99.90;;;;;;6242434;22;20020;-48
2021/06/06 05:06:52;;;;;;;39.13;33.30;;;14.90;99.90;;;;;;6242034;22;20051;-49
2021/06/06 05:09:22;;;;;;;43.63;33.75;;;14.90;99.90;;;;;;6243229;22;20122;-45
2021/06/06 05:11:58;;;;;;;40.00;32.90;;;15.00;99.90;;;;;;6242399;22;20053;-56
2021/06/06 05:14:27;;;;;;;36.80;32.63;;;15.10;99.90;;;;;;6269732;22;20151;-55
2021/06/06 05:16:59;;;;;;;37.25;33.17;;;15.10;99.90;;;;;;6242167;22;20023;-53
2021/06/06 05:19:34;;;;;;;39.50;32.88;;;15.10;99.90;;;;;;6242200;22;20077;-48
2021/06/06 05:22:06;;;;;;;35.70;30.90;;;15.10;99.90;;;;;;6241812;22;20599;-48
2021/06/06 05:24:35;;;;;;;37.50;31.95;;;15.20;99.90;;;;;;6269324;22;20392;-49
2021/06/06 05:27:05;;;;;;;36.70;32.40;;;15.20;99.90;;;;;;6241194;22;20051;-49
2021/06/06 05:29:32;;;;;;;36.70;32.20;;;15.20;99.90;;;;;;6241207;22;20040;-48
2021/06/06 05:31:59;;;;;;;36.10;30.88;;;15.20;99.90;;;;;;6267977;22;20106;-51
2021/06/06 05:34:28;;;;;;;37.50;32.17;;;15.20;99.90;;;;;;6268894;22;20093;-48
2021/06/06 05:37:00;;;;;;;44.83;34.47;;;15.10;99.90;;;;;;6279667;22;20348;-47
2021/06/06 05:39:26;;;;;;;;;;;15.00;99.90;;;;;;6269608;22;20022;-48
2021/06/06 05:42:02;;;;;;;38.28;31.15;;;15.00;99.90;;;;;;6273177;22;19945;-47
2021/06/06 05:44:33;;;;;;;36.42;30.35;;;15.00;99.90;;;;;;6247808;22;20593;-46
2021/06/06 05:47:06;;;;;;;32.42;28.55;;;15.10;99.90;;;;;;6269358;22;20012;-48
2021/06/06 05:49:33;;;;;;;33.03;29.40;;;15.10;99.90;;;;;;6268831;22;20027;-52
2021/06/06 05:52:08;;;;;;;35.47;29.98;;;15.20;99.90;;;;;;6242174;22;20334;-48
2021/06/06 05:54:34;;;;;;;36.95;29.33;;;15.20;99.90;;;;;;6269680;22;20520;-48
2021/06/06 05:57:03;;;;;;;36.60;31.55;;;15.30;99.90;;;;;;6280144;22;20499;-48
2021/06/06 05:59:32;;;;;;;37.05;29.38;;;15.40;99.90;;;;;;6269913;22;20085;-46
2021/06/06 06:02:06;;;;;;;56.88;45.85;;;15.40;99.90;;;;;;6270143;22;20043;-48
2021/06/06 06:04:35;;;;;;;38.45;32.35;;;15.40;99.90;;;;;;6270521;22;20315;-48
2021/06/06 06:07:02;;;;;;;43.00;33.88;;;15.40;99.90;;;;;;6269996;22;20019;-49
2021/06/06 06:09:30;;;;;;;43.80;34.22;;;15.30;99.90;;;;;;6242858;22;20032;-49
2021/06/06 06:11:59;;;;;;;52.65;38.63;;;15.20;99.90;;;;;;6269473;22;20019;-47
2021/06/06 06:14:30;;;;;;;48.88;36.33;;;15.10;99.90;;;;;;6269304;22;20019;-48
2021/06/06 06:16:59;;;;;;;47.63;35.05;;;15.20;99.90;;;;;;6253193;22;20020;-48
2021/06/06 06:19:29;;;;;;;48.90;38.40;;;15.10;99.90;;;;;;6242495;22;20073;-48
2021/06/06 06:21:55;;;;;;;40.97;33.33;;;15.10;99.90;;;;;;6268624;22;20453;-47
2021/06/06 06:24:24;;;;;;;49.20;37.03;;;15.10;99.90;;;;;;6242280;22;20081;-49
2021/06/06 06:26:55;;;;;;;42.05;32.80;;;15.20;99.90;;;;;;6269352;22;20047;-50
2021/06/06 06:29:36;;;;;;;;;;;15.10;99.90;;;;;;6253592;22;20015;-49
2021/06/06 06:32:17;;;;;;;50.13;36.08;;;14.90;99.90;;;;;;6269937;22;19922;-47
2021/06/06 06:34:47;;;;;;;55.58;34.42;;;14.80;99.90;;;;;;6269574;22;20047;-47
2021/06/06 06:37:18;;;;;;;50.13;33.42;;;14.80;99.90;;;;;;6269451;22;20348;-49
2021/06/06 06:39:47;;;;;;;50.20;31.00;;;14.80;99.90;;;;;;6269867;22;20016;-53
2021/06/06 06:42:16;;;;;;;;;;;14.90;99.90;;;;;;6270144;22;20022;-48
2021/06/06 06:44:46;;;;;;;51.58;34.88;;;14.90;99.90;;;;;;6279929;22;19923;-50
2021/06/06 06:47:14;;;;;;;44.33;28.05;;;14.90;99.90;;;;;;6269978;22;20027;-48
2021/06/06 06:49:51;;;;;;;42.25;26.40;;;14.90;99.90;;;;;;6268736;22;20106;-48
2021/06/06 06:52:19;;;;;;;44.10;27.33;;;14.90;99.90;;;;;;6268859;22;20041;-49
2021/06/06 06:54:49;;;;;;;46.88;31.48;;;14.90;99.90;;;;;;6269207;22;20742;-46
2021/06/06 06:57:15;;;;;;;42.65;28.10;;;15.00;99.90;;;;;;6268839;22;20020;-49
2021/06/06 06:59:45;;;;;;;38.38;26.33;;;15.00;99.90;;;;;;6242120;22;20370;-49
2021/06/06 07:02:14;;;;;;;42.72;27.55;;;15.00;99.90;;;;;;6279434;22;20015;-47
2021/06/06 07:04:44;;;;;;;37.90;25.88;;;15.20;99.90;;;;;;6269020;22;20019;-48
2021/06/06 07:07:13;;;;;;;39.08;27.08;;;15.20;99.90;;;;;;6269148;22;20023;-46
2021/06/06 07:09:44;;;;;;;36.15;24.92;;;15.20;99.90;;;;;;6269226;22;20011;-47
2021/06/06 07:12:13;;;;;;;36.42;23.38;;;15.20;99.90;;;;;;6268810;22;20020;-49
2021/06/06 07:14:43;;;;;;;34.92;24.88;;;15.10;99.90;;;;;;6269152;22;20027;-50
2021/06/06 07:17:12;;;;;;;35.30;24.10;;;15.10;99.90;;;;;;6269571;22;20019;-46
2021/06/06 07:19:44;;;;;;;43.97;32.80;;;15.20;99.90;;;;;;6269478;22;20352;-55
2021/06/06 07:22:10;;;;;;;30.38;23.75;;;15.20;99.90;;;;;;6269652;22;20015;-50
2021/06/06 07:24:37;;;;;;;29.80;22.48;;;15.30;99.90;;;;;;6269343;22;20789;-50
2021/06/06 07:27:06;;;;;;;32.75;23.42;;;15.40;99.90;;;;;;6269904;22;20095;-49
2021/06/06 07:29:38;;;;;;;29.95;22.38;;;15.40;99.90;;;;;;6270803;22;20023;-47
2021/06/06 07:32:08;;;;;;;27.98;22.20;;;15.40;99.90;;;;;;6271582;22;20453;-50
2021/06/06 07:34:37;;;;;;;67.43;57.88;;;15.50;99.90;;;;;;6271114;22;20107;-49
2021/06/06 07:37:06;;;;;;;31.88;24.98;;;15.60;99.90;;;;;;6271689;22;20015;-51
2021/06/06 07:39:36;;;;;;;30.65;22.40;;;15.50;99.90;;;;;;6272043;22;20066;-52
2021/06/06 07:42:06;;;;;;;31.63;21.98;;;15.50;99.90;;;;;;6271032;22;20016;-53
2021/06/06 07:44:33;;;;;;;30.95;20.77;;;15.60;99.90;;;;;;6271321;22;20453;-50
2021/06/06 07:47:03;;;;;;;29.58;21.35;;;15.50;99.90;;;;;;6271600;22;20020;-48
2021/06/06 07:49:33;;;;;;;35.13;25.80;;;15.60;99.90;;;;;;6270946;22;20024;-47
2021/06/06 07:51:59;;;;;;;30.80;22.23;;;15.60;99.90;;;;;;6271570;22;20495;-47
2021/06/06 07:54:25;;;;;;;23.92;19.20;;;15.80;99.90;;;;;;6270859;22;20342;-48
2021/06/06 07:56:58;;;;;;;25.30;18.88;;;15.80;99.90;;;;;;6271952;22;20102;-50
2021/06/06 07:59:27;;;;;;;35.53;25.77;;;15.80;99.90;;;;;;6271575;22;20080;-49
2021/06/06 08:01:54;;;;;;;23.55;18.17;;;15.90;99.90;;;;;;6281755;22;20020;-50
2021/06/06 08:04:22;;;;;;;24.02;17.15;;;15.80;99.90;;;;;;6271325;22;20019;-51
2021/06/06 08:06:48;;;;;;;22.17;17.20;;;15.60;99.90;;;;;;6271257;22;20024;-49
2021/06/06 08:09:17;;;;;;;27.88;20.52;;;15.70;99.90;;;;;;6271139;22;20049;-47
2021/06/06 08:11:43;;;;;;;21.73;16.42;;;15.50;99.90;;;;;;6271953;22;20061;-48
2021/06/06 08:14:14;;;;;;;25.38;20.67;;;15.50;99.90;;;;;;6271473;22;20097;-50
2021/06/06 08:16:43;;;;;;;47.00;40.30;;;15.40;99.90;;;;;;6271785;22;20039;-51
2021/06/06 08:19:11;;;;;;;24.95;18.52;;;15.40;99.90;;;;;;6282748;22;20020;-49
2021/06/06 08:21:44;;;;;;;31.98;27.70;;;15.40;99.90;;;;;;6271931;22;20024;-49
2021/06/06 08:24:11;;;;;;;24.63;18.27;;;15.50;99.90;;;;;;6280886;22;20085;-49
2021/06/06 08:26:37;;;;;;;26.60;20.58;;;15.50;99.90;;;;;;6280693;22;20023;-54
2021/06/06 08:29:05;;;;;;;25.08;19.85;;;15.60;99.90;;;;;;6270898;22;20016;-46
2021/06/06 08:31:34;;;;;;;24.80;21.30;;;15.60;99.90;;;;;;6271054;22;20510;-48
2021/06/06 08:34:01;;;;;;;25.52;20.13;;;15.90;99.90;;;;;;6270774;22;20022;-47
2021/06/06 08:36:34;;;;;;;28.13;21.08;;;16.00;99.90;;;;;;6271174;22;20034;-48
2021/06/06 08:39:18;;;;;;;27.05;21.35;;;16.10;99.90;;;;;;6271531;22;20020;-47
2021/06/06 08:41:57;;;;;;;24.00;21.17;;;16.00;99.90;;;;;;6243360;22;20099;-48
2021/06/06 08:44:50;;;;;;;27.52;21.63;;;16.00;99.90;;;;;;6270626;22;20019;-50
2021/06/06 08:47:25;;;;;;;23.40;20.25;;;16.30;99.90;;;;;;6271423;22;20026;-47
2021/06/06 08:49:52;;;;;;;;;;;16.30;99.90;;;;;;6281913;22;20027;-46
2021/06/06 08:52:44;;;;;;;25.08;20.25;;;16.50;99.90;;;;;;6270721;22;19930;-48
2021/06/06 08:55:41;;;;;;;24.63;20.73;;;16.40;99.90;;;;;;6269997;22;20883;-47
2021/06/06 08:58:38;;;;;;;25.23;21.63;;;16.60;99.90;;;;;;6270636;22;20416;-46
2021/06/06 09:01:29;;;;;;;23.48;20.92;;;16.60;99.90;;;;;;6270219;22;20523;-53
2021/06/06 09:03:58;;;;;;;25.75;21.27;;;16.70;99.90;;;;;;6270355;22;20015;-47
2021/06/06 09:06:37;;;;;;;24.95;22.13;;;16.50;99.90;;;;;;6270548;22;20019;-49
2021/06/06 09:09:05;;;;;;;25.95;20.55;;;16.60;99.90;;;;;;6270405;22;20053;-49
2021/06/06 09:11:32;;;;;;;26.30;21.27;;;16.60;99.90;;;;;;6281384;22;20161;-48
2021/06/06 09:14:01;;;;;;;24.15;20.85;;;16.50;99.90;;;;;;6270300;22;20015;-49
2021/06/06 09:16:35;;;;;;;27.07;24.17;;;16.40;99.90;;;;;;6280646;22;20341;-51
2021/06/06 09:19:09;;;;;;;34.95;29.65;;;16.40;99.90;;;;;;6270970;22;20026;-50
2021/06/06 09:21:35;;;;;;;27.90;22.42;;;16.50;99.90;;;;;;6281226;22;20020;-47
2021/06/06 09:24:37;;;;;;;25.52;21.23;;;16.50;99.90;;;;;;6270990;22;20023;-49
2021/06/06 09:27:09;;;;;;;;;;;16.40;99.90;;;;;;6265563;22;20019;-56
2021/06/06 09:29:36;;;;;;;28.25;23.10;;;16.40;99.90;;;;;;6281509;22;19972;-50
2021/06/06 09:32:20;;;;;;;43.72;37.05;;;16.40;99.90;;;;;;6270631;22;20020;-47
2021/06/06 09:34:56;;;;;;;29.20;23.65;;;16.40;99.90;;;;;;6270204;22;20131;-46
2021/06/06 09:37:27;;;;;;;30.00;22.60;;;16.30;99.90;;;;;;6269911;22;20023;-49
2021/06/06 09:40:08;;;;;;;26.85;23.55;;;16.30;99.90;;;;;;6270502;22;20016;-49
2021/06/06 09:42:49;;;;;;;31.15;25.48;;;16.20;99.90;;;;;;6279177;22;20027;-50
2021/06/06 09:45:41;;;;;;;31.85;25.73;;;16.30;99.90;;;;;;6280446;22;20039;-51
2021/06/06 09:48:23;;;;;;;31.20;24.92;;;16.20;99.90;;;;;;6270402;22;20065;-47
2021/06/06 09:50:51;;;;;;;31.42;25.40;;;16.30;99.90;;;;;;6280211;22;20790;-49
2021/06/06 09:53:24;;;;;;;34.25;25.92;;;16.30;99.90;;;;;;6241588;22;20069;-51
2021/06/06 09:56:03;;;;;;;32.15;24.90;;;16.40;99.90;;;;;;6269766;22;20039;-52
2021/06/06 09:58:33;;;;;;;31.60;25.85;;;16.40;99.90;;;;;;6269521;22;20016;-49
2021/06/06 10:01:29;;;;;;;117.50;94.47;;;16.30;99.90;;;;;;6279666;22;20023;-50
2021/06/06 10:04:18;;;;;;;49.30;41.90;;;16.30;99.90;;;;;;6242970;22;20023;-49
2021/06/06 10:06:46;;;;;;;34.03;27.90;;;16.40;99.90;;;;;;6270505;22;20051;-49
2021/06/06 10:09:22;;;;;;;42.63;34.22;;;16.40;99.90;;;;;;6280264;22;20556;-49
2021/06/06 10:12:01;;;;;;;33.80;26.58;;;16.30;99.90;;;;;;6270265;22;20023;-50
2021/06/06 10:14:45;;;;;;;40.78;29.20;;;16.30;99.90;;;;;;6270008;22;20012;-48
2021/06/06 10:17:45;;;;;;;34.60;28.17;;;16.20;99.90;;;;;;6270205;22;20027;-47
2021/06/06 10:20:17;;;;;;;39.13;28.15;;;16.00;99.90;;;;;;6248084;22;20024;-47
2021/06/06 10:22:56;;;;;;;38.63;29.02;;;16.10;99.90;;;;;;6269714;22;20019;-49
2021/06/06 10:25:52;;;;;;;36.47;29.33;;;16.10;99.90;;;;;;6269957;22;20011;-47
2021/06/06 10:28:29;;;;;;;41.00;31.58;;;16.20;99.90;;;;;;6269914;22;20466;-53
2021/06/06 10:31:13;;;;;;;41.50;32.67;;;16.30;99.90;;;;;;6270050;22;20054;-52
2021/06/06 10:33:46;;;;;;;41.35;31.27;;;16.30;99.90;;;;;;6269729;22;20069;-49
2021/06/06 10:36:18;;;;;;;47.45;33.88;;;16.40;99.90;;;;;;6269558;22;20019;-49
2021/06/06 10:38:48;;;;;;;48.47;36.22;;;16.30;99.90;;;;;;6242092;22;20451;-47
2021/06/06 10:41:26;;;;;;;52.22;39.85;;;16.30;99.90;;;;;;6270005;22;20097;-50
2021/06/06 10:43:53;;;;;;;42.05;29.98;;;16.30;99.90;;;;;;6269779;22;20020;-49
2021/06/06 10:46:33;;;;;;;38.08;29.40;;;16.30;99.90;;;;;;6280708;22;20095;-50
2021/06/06 10:49:14;;;;;;;36.63;28.52;;;16.20;99.90;;;;;;6269344;22;20024;-47
2021/06/06 10:51:51;;;;;;;35.77;28.63;;;16.30;99.90;;;;;;6270172;22;20030;-49
2021/06/06 10:54:32;;;;;;;33.67;26.92;;;16.40;99.90;;;;;;6280381;22;20020;-51
2021/06/06 10:57:15;;;;;;;38.55;29.08;;;16.30;99.90;;;;;;6280459;22;20684;-51
2021/06/06 10:59:49;;;;;;;37.22;29.38;;;16.30;99.90;;;;;;6270662;22;20015;-52
2021/06/06 11:02:32;;;;;;;;;;;16.50;99.90;;;;;;6270619;22;20020;-50
2021/06/06 11:05:23;;;;;;;33.90;25.65;;;16.40;99.90;;;;;;6281787;22;19927;-50
2021/06/06 11:07:50;;;;;;;33.70;26.48;;;16.40;99.90;;;;;;6118542;23;20537;-52
2021/06/06 11:10:16;;;;;;;33.30;26.27;;;16.50;99.90;;;;;;6118705;23;20499;-49
2021/06/06 11:12:44;;;;;;;29.63;22.80;;;16.60;99.90;;;;;;6118517;23;20018;-48
2021/06/06 11:15:36;;;;;;;31.35;24.52;;;16.70;99.90;;;;;;6118625;23;20022;-57
2021/06/06 11:18:15;;;;;;;25.95;21.92;;;16.70;99.90;;;;;;6125049;23;20028;-51
2021/06/06 11:20:54;;;;;;;26.40;22.80;;;16.80;99.90;;;;;;6128461;23;20448;-51
2021/06/06 11:23:45;;;;;;;26.08;22.52;;;16.70;99.90;;;;;;6128459;23;20049;-57
2021/06/06 11:26:43;;;;;;;28.20;23.92;;;16.80;99.90;;;;;;6109773;23;20029;-57
2021/06/06 11:29:12;;;;;;;28.77;23.10;;;16.80;99.90;;;;;;6118337;23;20022;-57
2021/06/06 11:32:00;;;;;;;24.67;21.25;;;16.80;99.90;;;;;;6118294;23;20041;-57
2021/06/06 11:34:33;;;;;;;24.33;21.00;;;16.70;99.90;;;;;;6127608;23;20022;-56
2021/06/06 11:37:20;;;;;;;20.45;18.20;;;16.80;99.90;;;;;;6117562;23;20590;-56
2021/06/06 11:39:47;;;;;;;20.70;18.50;;;16.80;99.90;;;;;;6118121;23;20028;-55
2021/06/06 11:42:27;;;;;;;22.25;17.60;;;16.80;99.90;;;;;;6128338;23;20355;-56
2021/06/06 11:45:06;;;;;;;21.63;16.85;;;16.90;99.90;;;;;;6199122;22;20034;-56
2021/06/06 11:47:45;;;;;;;18.25;16.27;;;16.80;99.90;;;;;;6282341;22;20337;-56
2021/06/06 11:50:22;;;;;;;21.92;17.70;;;16.60;99.90;;;;;;6271588;22;20019;-56
2021/06/06 11:52:54;;;;;;;19.48;17.38;;;16.70;99.90;;;;;;6271456;22;20028;-56
2021/06/06 11:55:29;;;;;;;22.02;18.15;;;16.70;99.90;;;;;;6271660;22;20103;-55
2021/06/06 11:58:35;;;;;;;22.60;19.50;;;16.50;99.90;;;;;;6271420;22;20050;-55
2021/06/06 12:01:25;;;;;;;23.02;19.40;;;16.60;99.90;;;;;;6271593;22;20019;-56
2021/06/06 12:04:04;;;;;;;22.25;19.23;;;16.50;99.90;;;;;;6271564;22;20026;-56
2021/06/06 12:06:30;;;;;;;21.60;19.25;;;16.40;99.90;;;;;;6271650;22;20074;-56
2021/06/06 12:09:13;;;;;;;22.05;18.70;;;16.50;99.90;;;;;;6244120;22;20023;-56
2021/06/06 12:11:43;;;;;;;20.30;18.02;;;16.50;99.90;;;;;;6281918;22;20019;-56
2021/06/06 12:14:25;;;;;;;24.35;19.08;;;16.50;99.90;;;;;;6271973;22;20016;-56
2021/06/06 12:16:53;;;;;;;;;;;16.50;99.90;;;;;;6243215;22;20026;-61
2021/06/06 12:19:39;;;;;;;54.88;45.60;;;16.40;99.90;;;;;;6281391;22;19926;-59
2021/06/06 12:22:13;;;;;;;22.25;19.75;;;16.60;99.90;;;;;;6271542;22;20412;-61
2021/06/06 12:24:40;;;;;;;30.67;24.67;;;16.70;99.90;;;;;;6281533;22;20042;-61
2021/06/06 12:27:23;;;;;;;30.70;24.08;;;16.70;99.90;;;;;;6271221;22;20020;-60
2021/06/06 12:29:54;;;;;;;26.17;23.25;;;16.60;99.90;;;;;;6271553;22;20020;-61
2021/06/06 12:32:28;;;;;;;23.25;20.80;;;16.70;99.90;;;;;;6270886;22;20054;-60
2021/06/06 12:34:55;;;;;;;25.38;20.90;;;16.90;99.90;;;;;;6270900;22;20401;-60
2021/06/06 12:37:29;;;;;;;22.63;19.20;;;16.90;99.90;;;;;;6269778;22;20707;-58
2021/06/06 12:39:59;;;;;;;26.05;23.15;;;16.90;99.90;;;;;;6243702;22;20026;-59
2021/06/06 12:42:28;;;;;;;27.15;22.45;;;17.10;99.90;;;;;;6280683;22;20024;-56
2021/06/06 12:45:00;;;;;;;24.83;22.30;;;17.20;99.90;;;;;;6270813;22;20023;-55
2021/06/06 12:47:39;;;;;;;21.35;19.08;;;17.20;99.90;;;;;;6270331;22;20015;-55
2021/06/06 12:50:05;;;;;;;21.00;18.67;;;17.10;99.90;;;;;;6271245;22;20020;-56
2021/06/06 12:52:39;;;;;;;22.70;20.33;;;17.20;99.90;;;;;;6271542;22;20012;-52
2021/06/06 12:55:15;;;;;;;21.33;18.23;;;17.20;99.90;;;;;;6272302;22;20043;-56
2021/06/06 12:58:00;;;;;;;23.52;19.48;;;17.10;99.90;;;;;;6254294;22;20453;-56
2021/06/06 13:00:35;;;;;;;21.00;17.33;;;17.10;99.90;;;;;;6271268;22;20344;-56
2021/06/06 13:03:14;;;;;;;19.63;17.15;;;17.00;99.90;;;;;;6281055;22;20020;-54
2021/06/06 13:05:46;;;;;;;19.23;16.90;;;17.10;99.90;;;;;;6271530;22;20019;-56
2021/06/06 13:08:37;;;;;;;18.23;16.27;;;17.20;99.90;;;;;;6281408;22;20039;-54